Temp: 5.4°C   Baro: 1027.3mb
  Wind: 2.9mph   Dir: W (274°)
  Rain: 0.0mm (0.0mm/hr)
  Humidity: 88%

Historic data

Bath Spa Weather Station Historical Data
Daily Summary for December 01, 2022 Units:  Metric    English   Both
Daily Weekly Monthly Yearly Custom
  High: Low: Average:
Temperature: 4.2 °C 0.4 °C 2.7 °C
Dew Point: 3.8 °C 0 °C 2.2 °C
Humidity: 97% 95% 96%
Wind Speed: 5.8km/h 0km/h 2.4km/h
Wind Gust: 12.9km/h - -
Wind- - East
Pressure: 1031 hPa 1029 hPa -
Precipitation: 0 mm    
Historical Graphs
 
 
Tabular Data for December 01, 2022
Time Temperature Dew Point Pressure Wind Wind Speed Wind Gust Humidity Rainfall Rate (Hourly) solar
00:09 3.5 °C 2.8 °C 1029 hPa ESE 2.7 km/h 8 km/h 95% 0 mm 0 W/m2
00:14 3.4 °C 2.7 °C 1029 hPa ESE 2.7 km/h 4.8 km/h 95% 0 mm 0 W/m2
00:19 3.2 °C 2.6 °C 1029 hPa ESE 1.9 km/h 6.4 km/h 95% 0 mm 0 W/m2
00:24 3.1 °C 2.4 °C 1029 hPa ESE 2.7 km/h 4.8 km/h 95% 0 mm 0 W/m2
00:29 3.1 °C 2.4 °C 1029 hPa ESE 2.4 km/h 4.8 km/h 95% 0 mm 0 W/m2
00:34 3.1 °C 2.4 °C 1029 hPa ESE 3.2 km/h 6.4 km/h 95% 0 mm 0 W/m2
00:39 3.1 °C 2.4 °C 1029.3 hPa ESE 0.3 km/h 4.8 km/h 95% 0 mm 0 W/m2
00:44 3.1 °C 2.4 °C 1029.3 hPa ESE 0.8 km/h 3.2 km/h 95% 0 mm 0 W/m2
00:49 2.9 °C 2.2 °C 1029.7 hPa Calm   3.2 km/h 95% 0 mm 0 W/m2
00:54 2.9 °C 2.2 °C 1029.7 hPa ESE 0.8 km/h 3.2 km/h 95% 0 mm 0 W/m2
00:59 2.9 °C 2.2 °C 1029.7 hPa ESE 1.1 km/h 3.2 km/h 95% 0 mm 0 W/m2
01:04 2.8 °C 2.2 °C 1029.7 hPa ESE 0.6 km/h 1.6 km/h 95% 0 mm 0 W/m2
01:09 2.7 °C 2 °C 1029.7 hPa ESE 1.1 km/h 3.2 km/h 95% 0 mm 0 W/m2
01:14 2.7 °C 2 °C 1029.7 hPa ESE 0.3 km/h 1.6 km/h 95% 0 mm 0 W/m2
01:19 2.8 °C 2.1 °C 1029.7 hPa ESE 0.6 km/h 1.6 km/h 95% 0 mm 0 W/m2
01:24 2.8 °C 2.2 °C 1029.7 hPa ESE 0.3 km/h 1.6 km/h 95% 0 mm 0 W/m2
01:29 2.9 °C 2.2 °C 1029.7 hPa ESE 0.3 km/h 1.6 km/h 95% 0 mm 0 W/m2
01:34 3 °C 2.3 °C 1029.7 hPa ESE 0.3 km/h 3.2 km/h 95% 0 mm 0 W/m2
01:39 3 °C 2.3 °C 1029.7 hPa ESE 1.3 km/h 4.8 km/h 95% 0 mm 0 W/m2
01:44 2.9 °C 2.2 °C 1029.7 hPa ESE 3.4 km/h 9.7 km/h 95% 0 mm 0 W/m2
01:49 2.8 °C 2.1 °C 1029.7 hPa SE 5.1 km/h 9.7 km/h 95% 0 mm 0 W/m2
01:54 2.7 °C 2 °C 1029.3 hPa SE 3.5 km/h 4.8 km/h 95% 0 mm 0 W/m2
01:59 2.7 °C 2 °C 1029.3 hPa SE 1.9 km/h 4.8 km/h 95% 0 mm 0 W/m2
02:04 2.7 °C 1.9 °C 1029.3 hPa SE 3.7 km/h 9.7 km/h 95% 0 mm 0 W/m2
02:09 2.7 °C 2 °C 1029.3 hPa SE 5.6 km/h 11.3 km/h 95% 0 mm 0 W/m2
02:14 2.7 °C 2 °C 1029.3 hPa SE 4 km/h 9.7 km/h 95% 0 mm 0 W/m2
02:19 2.7 °C 2 °C 1029.3 hPa ESE 5.3 km/h 11.3 km/h 95% 0 mm 0 W/m2
02:24 2.7 °C 2 °C 1029.3 hPa ESE 4 km/h 8 km/h 95% 0 mm 0 W/m2
02:29 2.7 °C 1.9 °C 1029.3 hPa ESE 2.7 km/h 6.4 km/h 95% 0 mm 0 W/m2
02:34 2.6 °C 1.9 °C 1029.3 hPa ESE 4.8 km/h 8 km/h 95% 0 mm 0 W/m2
02:39 2.6 °C 1.9 °C 1029.3 hPa ESE 3.9 km/h 11.3 km/h 95% 0 mm 0 W/m2
02:44 2.6 °C 1.9 °C 1029.3 hPa ESE 3.7 km/h 11.3 km/h 95% 0 mm 0 W/m2
02:49 2.6 °C 1.9 °C 1029.3 hPa ESE 3.1 km/h 6.4 km/h 95% 0 mm 0 W/m2
02:54 2.7 °C 1.9 °C 1029.3 hPa ESE 2.6 km/h 6.4 km/h 95% 0 mm 0 W/m2
02:59 2.7 °C 1.9 °C 1029.3 hPa ESE 1.4 km/h 6.4 km/h 95% 0 mm 0 W/m2
03:04 2.7 °C 2 °C 1029.3 hPa ESE 2.1 km/h 4.8 km/h 95% 0 mm 0 W/m2
03:09 2.7 °C 1.9 °C 1029.3 hPa ESE 2.1 km/h 6.4 km/h 95% 0 mm 0 W/m2
03:14 2.6 °C 1.9 °C 1029.3 hPa ESE 3.4 km/h 8 km/h 95% 0 mm 0 W/m2
03:19 2.6 °C 1.9 °C 1029.3 hPa ESE 1.4 km/h 8 km/h 95.6% 0 mm 0 W/m2
03:24 2.6 °C 2 °C 1029.3 hPa Calm   3.2 km/h 96% 0 mm 0 W/m2
03:29 2.6 °C 2 °C 1029.7 hPa ESE 0.6 km/h 3.2 km/h 96% 0 mm 0 W/m2
03:34 2.6 °C 2 °C 1029.7 hPa ESE 1.9 km/h 3.2 km/h 95.8% 0 mm 0 W/m2
03:39 2.6 °C 1.9 °C 1029.7 hPa ESE 1.8 km/h 4.8 km/h 95% 0 mm 0 W/m2
03:44 2.6 °C 2 °C 1029.7 hPa ESE 1.8 km/h 3.2 km/h 95.6% 0 mm 0 W/m2
03:49 2.6 °C 2 °C 1029.7 hPa ESE 0.8 km/h 3.2 km/h 96% 0 mm 0 W/m2
03:54 2.6 °C 2 °C 1029.7 hPa ESE 1.8 km/h 3.2 km/h 96% 0 mm 0 W/m2
03:59 2.6 °C 2 °C 1029.7 hPa ESE 2.1 km/h 6.4 km/h 96% 0 mm 0 W/m2
04:04 2.7 °C 2.1 °C 1029.7 hPa ESE 2.4 km/h 4.8 km/h 96% 0 mm 0 W/m2
04:09 2.6 °C 2 °C 1029.7 hPa ESE 3.5 km/h 6.4 km/h 96% 0 mm 0 W/m2
04:14 2.6 °C 2 °C 1029.7 hPa ESE 1.6 km/h 6.4 km/h 96% 0 mm 0 W/m2
04:19 2.6 °C 2 °C 1029.7 hPa ESE 2.4 km/h 6.4 km/h 96% 0 mm 0 W/m2
04:24 2.6 °C 2 °C 1029.7 hPa ESE 3.7 km/h 6.4 km/h 96% 0 mm 0 W/m2
04:29 2.6 °C 2 °C 1029.7 hPa ESE 4 km/h 8 km/h 96% 0 mm 0 W/m2
04:34 2.5 °C 1.9 °C 1029.7 hPa ESE 3.5 km/h 8 km/h 96% 0 mm 0 W/m2
04:39 2.4 °C 1.8 °C 1029.7 hPa ESE 3.7 km/h 8 km/h 96% 0 mm 0 W/m2
04:44 2.4 °C 1.8 °C 1029.7 hPa SE 3.5 km/h 8 km/h 96% 0 mm 0 W/m2
04:49 2.4 °C 1.8 °C 1029.7 hPa SE 2.1 km/h 6.4 km/h 96% 0 mm 0 W/m2
04:54 2.4 °C 1.8 °C 1030 hPa SE 3.5 km/h 6.4 km/h 96% 0 mm 0 W/m2
04:59 2.4 °C 1.8 °C 1030 hPa SE 3.7 km/h 6.4 km/h 96% 0 mm 0 W/m2
05:04 2.4 °C 1.8 °C 1030 hPa SE 1.4 km/h 6.4 km/h 96% 0 mm 0 W/m2
05:09 2.3 °C 1.8 °C 1030 hPa SE 2.6 km/h 4.8 km/h 96% 0 mm 0 W/m2
05:14 2.3 °C 1.7 °C 1029.7 hPa SE 1.9 km/h 4.8 km/h 96% 0 mm 0 W/m2
05:19 2.3 °C 1.7 °C 1029.7 hPa SE 1.9 km/h 6.4 km/h 96% 0 mm 0 W/m2
05:24 2.3 °C 1.7 °C 1030 hPa SE 1.4 km/h 3.2 km/h 96% 0 mm 0 W/m2
05:29 2.2 °C 1.7 °C 1030 hPa SE 3.2 km/h 4.8 km/h 96% 0 mm 0 W/m2
05:34 2.2 °C 1.7 °C 1030 hPa SE 2.1 km/h 6.4 km/h 96% 0 mm 0 W/m2
05:39 2.2 °C 1.6 °C 1030 hPa SE 2.7 km/h 8 km/h 96% 0 mm 0 W/m2
05:44 2.2 °C 1.6 °C 1029.7 hPa ESE 3.9 km/h 6.4 km/h 96% 0 mm 0 W/m2
05:49 2.2 °C 1.6 °C 1029.7 hPa ESE 2.6 km/h 6.4 km/h 96% 0 mm 0 W/m2
05:54 2.2 °C 1.6 °C 1029.7 hPa ESE 3.5 km/h 6.4 km/h 96% 0 mm 0 W/m2
05:59 2.3 °C 1.7 °C 1029.7 hPa East 2.6 km/h 6.4 km/h 96% 0 mm 0 W/m2
06:04 2.3 °C 1.7 °C 1029.7 hPa ESE 5.3 km/h 9.7 km/h 96% 0 mm 0 W/m2
06:09 2.3 °C 1.7 °C 1029.7 hPa ESE 5.1 km/h 9.7 km/h 96% 0 mm 0 W/m2
06:14 2.3 °C 1.7 °C 1030 hPa ESE 1.9 km/h 6.4 km/h 96% 0 mm 0 W/m2
06:19 2.4 °C 1.8 °C 1030 hPa ESE 3.9 km/h 6.4 km/h 96% 0 mm 0 W/m2
06:24 2.4 °C 1.8 °C 1030 hPa East 3.9 km/h 9.7 km/h 96% 0 mm 0 W/m2
06:29 2.6 °C 2 °C 1030 hPa ENE 5.8 km/h 12.9 km/h 96% 0 mm 0 W/m2
06:34 2.6 °C 2 °C 1030 hPa ENE 1.6 km/h 4.8 km/h 96% 0 mm 0 W/m2
06:39 2.7 °C 2.1 °C 1030 hPa East 2.6 km/h 6.4 km/h 96% 0 mm 0 W/m2
06:44 2.7 °C 2.1 °C 1030 hPa East 3.1 km/h 6.4 km/h 96% 0 mm 0 W/m2
06:49 2.8 °C 2.2 °C 1030 hPa ESE 0.8 km/h 6.4 km/h 96% 0 mm 0 W/m2
06:54 2.8 °C 2.2 °C 1030 hPa ESE 2.7 km/h 4.8 km/h 96% 0 mm 0 W/m2
06:59 2.8 °C 2.2 °C 1030 hPa ESE 4.2 km/h 8 km/h 96% 0 mm 0 W/m2
07:04 2.8 °C 2.2 °C 1030 hPa East 5.1 km/h 11.3 km/h 96% 0 mm 0 W/m2
07:09 2.8 °C 2.2 °C 1030 hPa NE 2.1 km/h 8 km/h 96% 0 mm 0 W/m2
07:14 2.9 °C 2.3 °C 1030.4 hPa NE 1.9 km/h 6.4 km/h 96% 0 mm 0 W/m2
07:19 3 °C 2.4 °C 1030.4 hPa NE 1.9 km/h 6.4 km/h 96% 0 mm 0 W/m2
07:24 3.7 °C 3.1 °C 1030.4 hPa NE 2.4 km/h 4.8 km/h 96% 0 mm 0 W/m2
07:29 4.2 °C 3.7 °C 1030.4 hPa NE 0.6 km/h 3.2 km/h 96% 0 mm 0 W/m2
07:34 4.2 °C 3.7 °C 1030.4 hPa NE 1.4 km/h 3.2 km/h 96% 0 mm 0 W/m2
07:39 3.7 °C 3.2 °C 1030.4 hPa NE 0.8 km/h 3.2 km/h 96% 0 mm 0 W/m2
07:44 3.2 °C 2.6 °C 1030.7 hPa East 2.4 km/h 8 km/h 96% 0 mm 0 W/m2
07:49 2.9 °C 2.3 °C 1030.7 hPa East 0.3 km/h 3.2 km/h 96% 0 mm 0 W/m2
07:54 2.9 °C 2.3 °C 1030.7 hPa Calm   1.6 km/h 96% 0 mm 0 W/m2
07:59 2.9 °C 2.3 °C 1030.7 hPa Calm     96% 0 mm 0 W/m2
08:04 3 °C 2.4 °C 1030.7 hPa Calm     96% 0 mm 5 W/m2
08:09 3.1 °C 2.4 °C 1030.7 hPa Calm     96% 0 mm 5 W/m2
08:14 3.1 °C 2.5 °C 1030.7 hPa Calm     96% 0 mm 5 W/m2
08:19 3.1 °C 2.5 °C 1031 hPa Calm     96% 0 mm 7 W/m2
08:24 3 °C 2.4 °C 1031 hPa East 2.4 km/h 4.8 km/h 96% 0 mm 11 W/m2
08:29 3 °C 2.4 °C 1031 hPa East 1.1 km/h 3.2 km/h 96% 0 mm 14 W/m2
08:34 3 °C 2.4 °C 1030.7 hPa East 0.6 km/h 4.8 km/h 96% 0 mm 16 W/m2
08:39 3.1 °C 2.5 °C 1030.7 hPa East 2.4 km/h 3.2 km/h 96% 0 mm 18 W/m2
08:44 3.1 °C 2.5 °C 1030.7 hPa East 1.9 km/h 8 km/h 96% 0 mm 18 W/m2
08:49 3.1 °C 2.5 °C 1031 hPa East 3.2 km/h 4.8 km/h 96% 0 mm 21 W/m2
08:54 3.1 °C 2.5 °C 1031 hPa East 2.1 km/h 6.4 km/h 96% 0 mm 23 W/m2
08:59 3 °C 2.4 °C 1031 hPa SE 2.6 km/h 8 km/h 96% 0 mm 26 W/m2
09:04 2.9 °C 2.3 °C 1031 hPa ESE 3.4 km/h 6.4 km/h 96% 0 mm 26 W/m2
09:09 2.9 °C 2.3 °C 1031 hPa ESE 1.6 km/h 6.4 km/h 96% 0 mm 30 W/m2
09:14 3.1 °C 2.4 °C 1031 hPa ESE 0.3 km/h 4.8 km/h 96% 0 mm 32 W/m2
09:19 3.1 °C 2.6 °C 1031 hPa ESE 2.7 km/h 6.4 km/h 96.2% 0 mm 33 W/m2
09:24 3.2 °C 2.7 °C 1031 hPa East 1.9 km/h 8 km/h 96.2% 0 mm 39 W/m2
09:29 3.2 °C 2.6 °C 1031 hPa ENE 3.5 km/h 8 km/h 96% 0 mm 42 W/m2
09:34 3.2 °C 2.7 °C 1031 hPa East 1.4 km/h 8 km/h 96.4% 0 mm 53 W/m2
09:39 3.2 °C 2.7 °C 1031 hPa East 1.4 km/h 6.4 km/h 96.6% 0 mm 54 W/m2
09:44 3.1 °C 2.6 °C 1031 hPa ESE 3.1 km/h 6.4 km/h 96.6% 0 mm 56 W/m2
09:49 3.2 °C 2.8 °C 1031 hPa ESE 3.5 km/h 8 km/h 97% 0 mm 53 W/m2
09:54 3.1 °C 2.6 °C 1031 hPa ESE 2.6 km/h 6.4 km/h 96.4% 0 mm 60 W/m2
09:59 3.2 °C 2.8 °C 1031 hPa ESE 0.6 km/h 4.8 km/h 97% 0 mm 62 W/m2
10:04 3.2 °C 2.8 °C 1031 hPa ESE 3.9 km/h 6.4 km/h 97% 0 mm 69 W/m2
10:09 3.2 °C 2.8 °C 1031 hPa ESE 2.6 km/h 6.4 km/h 97% 0 mm 70 W/m2
10:14 3.3 °C 2.8 °C 1031 hPa ESE 2.1 km/h 4.8 km/h 96.8% 0 mm 69 W/m2
10:19 3.2 °C 2.8 °C 1031 hPa ESE 4.5 km/h 6.4 km/h 97% 0 mm 74 W/m2
10:24 3.2 °C 2.8 °C 1031 hPa ESE 3.1 km/h 6.4 km/h 97% 0 mm 74 W/m2
10:29 3.2 °C 2.8 °C 1031 hPa ESE 3.2 km/h 8 km/h 97% 0 mm 77 W/m2
10:34 3.3 °C 2.8 °C 1031 hPa ESE 2.7 km/h 8 km/h 96.4% 0 mm 77 W/m2
10:39 3.4 °C 2.9 °C 1030.7 hPa ESE 3.4 km/h 8 km/h 96.2% 0 mm 81 W/m2
10:44 3.5 °C 3.1 °C 1030.7 hPa ESE 2.7 km/h 6.4 km/h 97% 0 mm 86 W/m2
10:49 3.3 °C 2.7 °C 1030.7 hPa ESE 3.9 km/h 6.4 km/h 96% 0 mm 81 W/m2
10:54 3.3 °C 2.7 °C 1030.7 hPa ESE 2.7 km/h 6.4 km/h 96% 0 mm 86 W/m2
10:59 3.3 °C 2.8 °C 1030.7 hPa ESE 2.1 km/h 4.8 km/h 96% 0 mm 95 W/m2
11:04 3.4 °C 2.8 °C 1030.7 hPa ESE 2.7 km/h 6.4 km/h 96% 0 mm 97 W/m2
11:09 3.4 °C 3 °C 1030.7 hPa ESE 4.2 km/h 9.7 km/h 96.6% 0 mm 105 W/m2
11:14 3.6 °C 3.2 °C 1030.7 hPa ESE 5.8 km/h 11.3 km/h 97% 0 mm 93 W/m2
11:19 3.7 °C 3.3 °C 1030.4 hPa ESE 5 km/h 11.3 km/h 97% 0 mm 90 W/m2
11:24 3.8 °C 3.3 °C 1030.4 hPa East 4.3 km/h 11.3 km/h 96.8% 0 mm 90 W/m2
11:29 3.7 °C 3.3 °C 1030.4 hPa ESE 3.4 km/h 11.3 km/h 97% 0 mm 91 W/m2
11:34 3.8 °C 3.4 °C 1030.4 hPa ESE 3.9 km/h 9.7 km/h 97% 0 mm 86 W/m2
11:39 3.8 °C 3.4 °C 1030.4 hPa ENE 3.2 km/h 9.7 km/h 97% 0 mm 88 W/m2
11:44 3.8 °C 3.4 °C 1030.4 hPa NE 4.2 km/h 6.4 km/h 97% 0 mm 91 W/m2
11:49 3.9 °C 3.5 °C 1030 hPa NE 2.6 km/h 6.4 km/h 97% 0 mm 100 W/m2
11:54 3.9 °C 3.5 °C 1030 hPa NE 2.9 km/h 6.4 km/h 97% 0 mm 93 W/m2
11:59 3.9 °C 3.5 °C 1030 hPa NE 2.6 km/h 4.8 km/h 97% 0 mm 84 W/m2
12:04 3.9 °C 3.5 °C 1030 hPa East 4 km/h 8 km/h 97% 0 mm 76 W/m2
12:09 3.9 °C 3.6 °C 1030 hPa East 2.9 km/h 6.4 km/h 97% 0 mm 74 W/m2
12:14 3.9 °C 3.6 °C 1030 hPa East 1.1 km/h 3.2 km/h 97% 0 mm 84 W/m2
12:19 3.9 °C 3.5 °C 1030 hPa East 2.6 km/h 4.8 km/h 97% 0 mm 77 W/m2
12:24 3.9 °C 3.5 °C 1030 hPa East 3.4 km/h 6.4 km/h 97% 0 mm 72 W/m2
12:29 3.9 °C 3.5 °C 1030 hPa East 1.4 km/h 4.8 km/h 97% 0 mm 74 W/m2
12:34 3.9 °C 3.5 °C 1030 hPa East 1.8 km/h 4.8 km/h 97% 0 mm 76 W/m2
12:39 3.8 °C 3.4 °C 1030 hPa East 3.2 km/h 4.8 km/h 97% 0 mm 81 W/m2
12:44 3.8 °C 3.4 °C 1030 hPa East 1.1 km/h 4.8 km/h 97% 0 mm 81 W/m2
12:49 3.9 °C 3.5 °C 1030 hPa East 3.4 km/h 4.8 km/h 97% 0 mm 97 W/m2
12:54 4.1 °C 3.7 °C 1029.7 hPa East 1.6 km/h 4.8 km/h 97% 0 mm 97 W/m2
12:59 4.1 °C 3.7 °C 1029.7 hPa East 1.4 km/h 4.8 km/h 97% 0 mm 88 W/m2
13:04 4.2 °C 3.8 °C 1029.7 hPa East 2.6 km/h 4.8 km/h 97% 0 mm 79 W/m2
13:09 4.2 °C 3.8 °C 1029.7 hPa East 2.1 km/h 6.4 km/h 97% 0 mm 79 W/m2
13:14 4.1 °C 3.7 °C 1029.7 hPa East 1.4 km/h 6.4 km/h 97% 0 mm 84 W/m2
13:19 3.9 °C 3.5 °C 1029.7 hPa East 1 km/h 4.8 km/h 97% 0 mm 84 W/m2
13:24 4.1 °C 3.7 °C 1029.3 hPa East 1.9 km/h 4.8 km/h 97% 0 mm 83 W/m2
13:29 4.1 °C 3.7 °C 1029.3 hPa ENE 3.5 km/h 8 km/h 97% 0 mm 70 W/m2
13:34 4.2 °C 3.8 °C 1029.3 hPa NE 1.8 km/h 6.4 km/h 97% 0 mm 76 W/m2
13:39 4.2 °C 3.8 °C 1029.3 hPa NE 1.3 km/h 4.8 km/h 97% 0 mm 70 W/m2
13:44 4.2 °C 3.7 °C 1029.3 hPa NE 3.2 km/h 6.4 km/h 97% 0 mm 56 W/m2
13:49 4.2 °C 3.8 °C 1029.3 hPa NE 2.1 km/h 6.4 km/h 97% 0 mm 53 W/m2
13:54 4.2 °C 3.8 °C 1029.7 hPa ENE 3.4 km/h 8 km/h 97% 0 mm 51 W/m2
13:59 4.2 °C 3.8 °C 1029.3 hPa East 3.2 km/h 6.4 km/h 97% 0 mm 47 W/m2
14:04 4.2 °C 3.8 °C 1029.3 hPa East 0.3 km/h 4.8 km/h 97% 0 mm 46 W/m2
14:09 4.2 °C 3.8 °C 1029.3 hPa East 2.1 km/h 4.8 km/h 97% 0 mm 49 W/m2
14:14 4.2 °C 3.8 °C 1029.3 hPa ENE 3.2 km/h 4.8 km/h 97% 0 mm 56 W/m2
14:19 4.2 °C 3.8 °C 1029.3 hPa ENE 2.3 km/h 4.8 km/h 97% 0 mm 54 W/m2
14:24 4.1 °C 3.7 °C 1029.3 hPa ENE 1.3 km/h 4.8 km/h 97% 0 mm 46 W/m2
14:29 3.9 °C 3.5 °C 1029.3 hPa ENE 2.1 km/h 8 km/h 97% 0 mm 47 W/m2
14:34 3.7 °C 3.3 °C 1029.3 hPa ENE 0.6 km/h 3.2 km/h 97% 0 mm 46 W/m2
14:39 3.7 °C 3.3 °C 1029.3 hPa Calm     97% 0 mm 42 W/m2
14:44 3.7 °C 3.3 °C 1029.3 hPa Calm   1.6 km/h 97% 0 mm 44 W/m2
14:49 3.7 °C 3.3 °C 1029.3 hPa ENE 0.6 km/h 3.2 km/h 97% 0 mm 42 W/m2
14:54 3.7 °C 3.3 °C 1029.3 hPa East 2.6 km/h 8 km/h 97% 0 mm 44 W/m2
14:59 3.7 °C 3.3 °C 1029 hPa East 3.9 km/h 8 km/h 97% 0 mm 40 W/m2
15:04 3.6 °C 3.2 °C 1029.3 hPa ESE 2.7 km/h 6.4 km/h 97% 0 mm 32 W/m2
15:09 3.7 °C 3.3 °C 1029.3 hPa ESE 3.2 km/h 4.8 km/h 97% 0 mm 32 W/m2
15:14 3.5 °C 3.1 °C 1029.3 hPa ESE 2.4 km/h 6.4 km/h 97% 0 mm 26 W/m2
15:19 3.5 °C 3.1 °C 1029.3 hPa ESE 2.9 km/h 6.4 km/h 97% 0 mm 25 W/m2
15:24 3.6 °C 3.2 °C 1029.3 hPa ESE 1.9 km/h 4.8 km/h 97% 0 mm 19 W/m2
15:29 3.5 °C 3.1 °C 1029.3 hPa ESE 1.3 km/h 6.4 km/h 97% 0 mm 18 W/m2
15:34 3.6 °C 3.2 °C 1029.3 hPa ESE 1.8 km/h 6.4 km/h 97% 0 mm 12 W/m2
15:39 3.7 °C 3.3 °C 1029.3 hPa ESE 2.7 km/h 6.4 km/h 97% 0 mm 11 W/m2
15:44 3.7 °C 3.3 °C 1029.3 hPa ESE 1.3 km/h 6.4 km/h 97% 0 mm 7 W/m2
15:49 3.6 °C 3.2 °C 1029.3 hPa ESE 2.4 km/h 4.8 km/h 97% 0 mm 5 W/m2
15:54 3.5 °C 3.1 °C 1029.3 hPa ESE 0.8 km/h 4.8 km/h 97% 0 mm 5 W/m2
15:59 3.5 °C 3.1 °C 1029.3 hPa Calm   1.6 km/h 97% 0 mm 0 W/m2
16:04 3.4 °C 3.1 °C 1029.3 hPa ESE 1.3 km/h 3.2 km/h 97% 0 mm 0 W/m2
16:09 3.4 °C 3 °C 1029.3 hPa ESE 1.4 km/h 4.8 km/h 97% 0 mm 0 W/m2
16:14 3.3 °C 2.9 °C 1029.3 hPa ESE 1.4 km/h 4.8 km/h 97% 0 mm 0 W/m2
16:19 3.4 °C 3 °C 1029.3 hPa ESE 3.2 km/h 4.8 km/h 97% 0 mm 0 W/m2
16:24 3.4 °C 3 °C 1029.3 hPa ESE 1.9 km/h 4.8 km/h 97% 0 mm 0 W/m2
16:29 3.4 °C 3 °C 1029.3 hPa ESE 3.4 km/h 6.4 km/h 97% 0 mm 0 W/m2
16:34 3.3 °C 2.9 °C 1029.3 hPa ESE 2.4 km/h 6.4 km/h 97% 0 mm 0 W/m2
16:39 3.3 °C 2.9 °C 1029.3 hPa ESE 2.6 km/h 6.4 km/h 97% 0 mm 0 W/m2
16:44 3.2 °C 2.8 °C 1029.3 hPa ESE 2.6 km/h 8 km/h 97% 0 mm 0 W/m2
16:49 3.1 °C 2.7 °C 1029.3 hPa SE 4.3 km/h 6.4 km/h 97% 0 mm 0 W/m2
16:54 2.9 °C 2.6 °C 1029.7 hPa SE 2.7 km/h 6.4 km/h 97% 0 mm 0 W/m2
16:59 2.9 °C 2.5 °C 1029.7 hPa SE 1.9 km/h 4.8 km/h 97% 0 mm 0 W/m2
17:04 3 °C 2.6 °C 1029.7 hPa SE 1.8 km/h 4.8 km/h 97% 0 mm 0 W/m2
17:09 2.9 °C 2.5 °C 1029.7 hPa ESE 2.7 km/h 8 km/h 97% 0 mm 0 W/m2
17:14 2.9 °C 2.5 °C 1029.3 hPa ESE 5.3 km/h 8 km/h 97% 0 mm 0 W/m2
17:19 2.8 °C 2.4 °C 1029.3 hPa ESE 3.9 km/h 6.4 km/h 97% 0 mm 0 W/m2
17:24 2.7 °C 2.3 °C 1029.7 hPa ESE 2.4 km/h 6.4 km/h 97% 0 mm 0 W/m2
17:29 2.6 °C 2.2 °C 1029.7 hPa ESE 1.3 km/h 3.2 km/h 97% 0 mm 0 W/m2
17:34 2.5 °C 2.1 °C 1029.7 hPa ESE 0.8 km/h 4.8 km/h 97% 0 mm 0 W/m2
17:39 2.4 °C 2.1 °C 1029.7 hPa ESE 0.8 km/h 4.8 km/h 97% 0 mm 0 W/m2
17:44 2.6 °C 2.2 °C 1029.7 hPa ESE 1 km/h 3.2 km/h 97% 0 mm 0 W/m2
17:49 2.6 °C 2.2 °C 1029.7 hPa ESE 1.4 km/h 3.2 km/h 97% 0 mm 0 W/m2
17:54 2.6 °C 2.2 °C 1029.7 hPa ESE 2.7 km/h 6.4 km/h 97% 0 mm 0 W/m2
17:59 2.6 °C 2.2 °C 1029.7 hPa East 2.7 km/h 6.4 km/h 97% 0 mm 0 W/m2
18:04 2.4 °C 2.1 °C 1029.7 hPa ENE 4 km/h 9.7 km/h 97% 0 mm 0 W/m2
18:09 2.3 °C 1.9 °C 1029.7 hPa NE 3.1 km/h 6.4 km/h 97% 0 mm 0 W/m2
18:14 2.2 °C 1.8 °C 1029.7 hPa NE 2.7 km/h 4.8 km/h 97% 0 mm 0 W/m2
18:19 2.2 °C 1.8 °C 1029.7 hPa NE 3.5 km/h 6.4 km/h 97% 0 mm 0 W/m2
18:24 2.1 °C 1.7 °C 1029.7 hPa NE 4.3 km/h 6.4 km/h 97% 0 mm 0 W/m2
18:29 2.1 °C 1.7 °C 1029.7 hPa North 3.9 km/h 8 km/h 97% 0 mm 0 W/m2
18:34 2.1 °C 1.7 °C 1029.7 hPa NNE 4 km/h 8 km/h 97% 0 mm 0 W/m2
18:39 2.1 °C 1.7 °C 1029.7 hPa NNE 3.9 km/h 8 km/h 97% 0 mm 0 W/m2
18:44 2.1 °C 1.7 °C 1029.7 hPa NNE 3.5 km/h 8 km/h 97% 0 mm 0 W/m2
18:49 2.1 °C 1.7 °C 1029.7 hPa NNE 1.4 km/h 6.4 km/h 97% 0 mm 0 W/m2
18:54 2.1 °C 1.7 °C 1029.7 hPa NNE 2.1 km/h 6.4 km/h 97% 0 mm 0 W/m2
18:59 2 °C 1.6 °C 1029.7 hPa NNE 1.1 km/h 4.8 km/h 97% 0 mm 0 W/m2
19:04 2 °C 1.6 °C 1029.7 hPa NNE 1.9 km/h 6.4 km/h 97% 0 mm 0 W/m2
19:09 2.1 °C 1.7 °C 1029.7 hPa NNE 1.4 km/h 4.8 km/h 97% 0 mm 0 W/m2
19:14 2 °C 1.6 °C 1029.3 hPa NNE 0.8 km/h 3.2 km/h 97% 0 mm 0 W/m2
19:19 2 °C 1.6 °C 1029.3 hPa NNE 0.6 km/h 3.2 km/h 97% 0 mm 0 W/m2
19:24 2 °C 1.6 °C 1029.7 hPa NE 2.3 km/h 6.4 km/h 97% 0 mm 0 W/m2
19:29 1.9 °C 1.5 °C 1029.7 hPa NE 3.7 km/h 6.4 km/h 97% 0 mm 0 W/m2
19:34 1.7 °C 1.3 °C 1029.7 hPa NE 3.5 km/h 6.4 km/h 97% 0 mm 0 W/m2
19:39 1.7 °C 1.3 °C 1029.7 hPa NE 3.2 km/h 6.4 km/h 97% 0 mm 0 W/m2
19:44 1.8 °C 1.4 °C 1029.3 hPa NE 1.4 km/h 4.8 km/h 97% 0 mm 0 W/m2
19:49 1.8 °C 1.4 °C 1029.3 hPa NE 2.1 km/h 6.4 km/h 97% 0 mm 0 W/m2
19:54 1.8 °C 1.4 °C 1029.7 hPa NE 4.7 km/h 8 km/h 97% 0 mm 0 W/m2
19:59 1.8 °C 1.4 °C 1029.3 hPa NE 1.9 km/h 6.4 km/h 97% 0 mm 0 W/m2
20:04 1.8 °C 1.4 °C 1029.7 hPa NE 3.2 km/h 6.4 km/h 97% 0 mm 0 W/m2
20:09 1.8 °C 1.4 °C 1029.7 hPa NE 0.8 km/h 4.8 km/h 97% 0 mm 0 W/m2
20:14 1.8 °C 1.4 °C 1029.7 hPa NE 2.1 km/h 8 km/h 97% 0 mm 0 W/m2
20:19 1.8 °C 1.4 °C 1029.7 hPa East 3.9 km/h 8 km/h 97% 0 mm 0 W/m2
20:24 1.6 °C 1.2 °C 1029.7 hPa East 3.4 km/h 6.4 km/h 97% 0 mm 0 W/m2
20:29 1.4 °C 1 °C 1029.7 hPa ESE 3.9 km/h 6.4 km/h 97% 0 mm 0 W/m2
20:34 1.4 °C 1 °C 1029.7 hPa ESE 2.1 km/h 6.4 km/h 97% 0 mm 0 W/m2
20:39 1.4 °C 1 °C 1029.3 hPa ESE 2.7 km/h 6.4 km/h 97% 0 mm 0 W/m2
20:44 1.6 °C 1.2 °C 1029.3 hPa East 3.2 km/h 6.4 km/h 97% 0 mm 0 W/m2
20:49 1.6 °C 1.2 °C 1029.3 hPa East 2.9 km/h 4.8 km/h 97% 0 mm 0 W/m2
20:54 1.4 °C 1 °C 1029.7 hPa East 1.9 km/h 6.4 km/h 97% 0 mm 0 W/m2
20:59 1.4 °C 1 °C 1029.7 hPa East 3.7 km/h 6.4 km/h 97% 0 mm 0 W/m2
21:04 1.4 °C 1 °C 1029.7 hPa East 2.4 km/h 4.8 km/h 97% 0 mm 0 W/m2
21:09 1.4 °C 1 °C 1029.7 hPa East 3.7 km/h 6.4 km/h 97% 0 mm 0 W/m2
21:14 1.4 °C 1 °C 1029.7 hPa East 1.6 km/h 6.4 km/h 97% 0 mm 0 W/m2
21:19 1.4 °C 1 °C 1029.7 hPa East 3.2 km/h 6.4 km/h 97% 0 mm 0 W/m2
21:24 1.4 °C 1 °C 1029.7 hPa East 0.6 km/h 4.8 km/h 97% 0 mm 0 W/m2
21:29 1.4 °C 1 °C 1029.7 hPa ENE 4 km/h 8 km/h 97% 0 mm 0 W/m2
21:34 1.3 °C 0.9 °C 1029.7 hPa NE 4.7 km/h 8 km/h 97% 0 mm 0 W/m2
21:39 1.2 °C 0.8 °C 1029.7 hPa NE 4.3 km/h 8 km/h 97% 0 mm 0 W/m2
21:44 1.2 °C 0.8 °C 1029.7 hPa NE 2.7 km/h 6.4 km/h 97% 0 mm 0 W/m2
21:49 1.2 °C 0.8 °C 1029.3 hPa NE 1 km/h 3.2 km/h 97% 0 mm 0 W/m2
21:54 1.2 °C 0.8 °C 1029.3 hPa NE 0.3 km/h 3.2 km/h 97% 0 mm 0 W/m2
21:59 1.2 °C 0.8 °C 1029.3 hPa NE 2.7 km/h 4.8 km/h 97% 0 mm 0 W/m2
22:04 1.2 °C 0.8 °C 1029.3 hPa NE 3.2 km/h 4.8 km/h 97% 0 mm 0 W/m2
22:09 1.2 °C 0.8 °C 1029.3 hPa NE 2.7 km/h 6.4 km/h 97% 0 mm 0 W/m2
22:14 1.2 °C 0.8 °C 1029.3 hPa NE 3.7 km/h 8 km/h 97% 0 mm 0 W/m2
22:19 1.1 °C 0.7 °C 1029.3 hPa NE 2.4 km/h 8 km/h 97% 0 mm 0 W/m2
22:24 0.9 °C 0.6 °C 1029.3 hPa NE 2.7 km/h 4.8 km/h 97% 0 mm 0 W/m2
22:29 0.9 °C 0.5 °C 1029.3 hPa NE 0.8 km/h 4.8 km/h 97% 0 mm 0 W/m2
22:34 0.8 °C 0.4 °C 1029.3 hPa NE 1.4 km/h 3.2 km/h 97% 0 mm 0 W/m2
22:39 0.8 °C 0.4 °C 1029.3 hPa NE 0.8 km/h 4.8 km/h 97% 0 mm 0 W/m2
22:44 0.8 °C 0.4 °C 1029.3 hPa NE 1 km/h 3.2 km/h 97% 0 mm 0 W/m2
22:49 0.8 °C 0.4 °C 1029.3 hPa NE 2.1 km/h 4.8 km/h 97% 0 mm 0 W/m2
22:54 0.8 °C 0.4 °C 1029.3 hPa NE 1.9 km/h 3.2 km/h 97% 0 mm 0 W/m2
22:59 0.8 °C 0.4 °C 1029.3 hPa NE 1.3 km/h 4.8 km/h 97% 0 mm 0 W/m2
23:04 0.8 °C 0.4 °C 1029.3 hPa NE 1.4 km/h 4.8 km/h 97% 0 mm 0 W/m2
23:09 0.8 °C 0.4 °C 1029.3 hPa NE 2.6 km/h 4.8 km/h 97% 0 mm 0 W/m2
23:14 0.7 °C 0.3 °C 1029.3 hPa NE 2.4 km/h 6.4 km/h 97% 0 mm 0 W/m2
23:19 0.7 °C 0.2 °C 1029.3 hPa NE 2.1 km/h 6.4 km/h 97% 0 mm 0 W/m2
23:24 0.6 °C 0.2 °C 1029.3 hPa NE 2.3 km/h 6.4 km/h 97% 0 mm 0 W/m2
23:29 0.4 °C 0.1 °C 1029.3 hPa NE 1.1 km/h 3.2 km/h 97% 0 mm 0 W/m2
23:34 0.4 °C 0.1 °C 1029.3 hPa NE 2.1 km/h 4.8 km/h 97% 0 mm 0 W/m2
23:39 0.5 °C 0.1 °C 1029.3 hPa East 5.5 km/h 9.7 km/h 97% 0 mm 0 W/m2
23:44 0.5 °C 0.1 °C 1029.3 hPa ESE 3.5 km/h 8 km/h 97% 0 mm 0 W/m2
23:49 0.6 °C 0.2 °C 1029 hPa East 3.9 km/h 12.9 km/h 97% 0 mm 0 W/m2
23:54 0.6 °C 0.2 °C 1029.3 hPa ENE 4 km/h 12.9 km/h 97% 0 mm 0 W/m2
23:59 0.4 °C 0 °C 1029 hPa NE 3.2 km/h 6.4 km/h 97% 0 mm 0 W/m2
Bath Spa Weather
Compliments of Weather Underground - 2 mb